createdAt,value
2022-08-12T00:01:06.949Z,21.74
2022-08-12T00:02:28.361Z,21.81
2022-08-12T00:03:51.287Z,21.78
2022-08-12T00:05:11.713Z,21.92
2022-08-12T00:06:33.262Z,21.86
2022-08-12T00:07:55.884Z,21.88
2022-08-12T00:09:17.046Z,21.73
2022-08-12T00:10:38.583Z,21.73
2022-08-12T00:11:59.854Z,21.78
2022-08-12T00:13:19.988Z,21.77
2022-08-12T00:14:41.139Z,21.81
2022-08-12T00:16:03.846Z,21.76
2022-08-12T00:17:24.851Z,21.68
2022-08-12T00:18:45.342Z,21.71
2022-08-12T00:20:06.007Z,21.77
2022-08-12T00:21:26.710Z,21.89
2022-08-12T00:22:58.851Z,21.72
2022-08-12T00:24:20.789Z,21.75
2022-08-12T00:26:00.442Z,21.80
2022-08-12T00:27:24.238Z,21.74
2022-08-12T00:28:47.843Z,21.93
2022-08-12T00:30:08.500Z,21.98
2022-08-12T00:31:33.079Z,22.01
2022-08-12T00:32:56.689Z,22.05
2022-08-12T00:34:17.677Z,22.03
2022-08-12T00:35:38.140Z,22.13
2022-08-12T00:37:11.321Z,22.13
2022-08-12T00:38:33.665Z,22.15
2022-08-12T00:39:55.245Z,22.16
2022-08-12T00:41:16.954Z,22.16
2022-08-12T00:42:21.157Z,22.10
2022-08-12T00:43:24.539Z,22.11
2022-08-12T00:44:27.286Z,22.17
2022-08-12T00:45:53.187Z,22.21
2022-08-12T00:47:01.833Z,22.23
2022-08-12T00:48:03.872Z,22.23
2022-08-12T00:49:08.017Z,22.21
2022-08-12T00:50:17.886Z,22.25
2022-08-12T00:51:20.158Z,22.26
2022-08-12T00:52:23.533Z,22.28
2022-08-12T00:53:28.659Z,22.24
2022-08-12T00:54:32.212Z,22.29
2022-08-12T00:55:34.087Z,22.30
2022-08-12T00:56:38.755Z,22.32
2022-08-12T00:57:44.619Z,22.34
2022-08-12T00:58:48.085Z,22.34
2022-08-12T00:59:51.335Z,22.32
2022-08-12T01:00:53.373Z,22.25
2022-08-12T01:02:02.057Z,22.30
2022-08-12T01:03:18.700Z,22.26
2022-08-12T01:04:39.295Z,22.27
2022-08-12T01:06:01.457Z,22.29
2022-08-12T01:07:24.417Z,22.27
2022-08-12T01:08:44.348Z,22.24
2022-08-12T01:10:07.035Z,22.28
2022-08-12T01:11:28.056Z,22.24
2022-08-12T01:12:30.169Z,22.12
2022-08-12T01:13:39.917Z,22.17
2022-08-12T01:14:42.530Z,22.17
2022-08-12T01:15:46.281Z,22.04
2022-08-12T01:16:50.764Z,22.08
2022-08-12T01:17:53.448Z,22.12
2022-08-12T01:18:57.380Z,22.12
2022-08-12T01:20:06.150Z,22.10
2022-08-12T01:21:16.928Z,22.08
2022-08-12T01:22:23.719Z,22.05
2022-08-12T01:23:31.226Z,22.05
2022-08-12T01:24:59.247Z,22.02
2022-08-12T01:26:05.136Z,21.94
2022-08-12T01:27:10.786Z,22.06
2022-08-12T01:28:16.733Z,22.02
2022-08-12T01:29:28.460Z,21.91
2022-08-12T01:30:34.012Z,21.98
2022-08-12T01:31:37.629Z,21.96
2022-08-12T01:32:42.188Z,21.96
2022-08-12T01:33:52.707Z,21.96
2022-08-12T01:35:11.373Z,21.93
2022-08-12T01:36:17.546Z,21.93
2022-08-12T01:37:22.430Z,21.96
2022-08-12T01:38:29.864Z,21.95
2022-08-12T01:40:34.843Z,21.91
2022-08-12T01:41:11.628Z,21.89
2022-08-12T01:42:17.000Z,21.89
2022-08-12T01:43:21.781Z,21.88
2022-08-12T01:44:24.586Z,21.78
2022-08-12T01:45:29.660Z,21.75
2022-08-12T01:47:14.782Z,21.72
2022-08-12T01:48:54.217Z,21.69
2022-08-12T01:50:01.764Z,21.71
2022-08-12T01:52:19.892Z,21.70
2022-08-12T01:52:57.777Z,21.71
2022-08-12T01:54:06.392Z,21.70
2022-08-12T01:55:10.239Z,21.71
2022-08-12T01:56:14.588Z,21.69
2022-08-12T01:57:59.313Z,21.64
2022-08-12T01:59:22.873Z,21.56
2022-08-12T02:00:35.963Z,21.48
2022-08-12T02:01:50.451Z,21.51
2022-08-12T02:03:12.314Z,21.53
2022-08-12T02:05:05.015Z,21.51
2022-08-12T02:06:32.671Z,21.47
2022-08-12T02:08:23.336Z,21.41
2022-08-12T02:10:08.660Z,21.02
2022-08-12T02:11:22.983Z,20.79
2022-08-12T02:12:52.462Z,20.59
2022-08-12T02:14:12.070Z,20.47
2022-08-12T02:15:27.458Z,20.55
2022-08-12T02:16:31.975Z,20.55
2022-08-12T02:17:56.621Z,20.57
2022-08-12T02:19:27.804Z,20.72
2022-08-12T02:20:51.482Z,20.75
2022-08-12T02:22:27.753Z,20.80
2022-08-12T02:23:31.314Z,20.82
2022-08-12T02:24:37.550Z,20.78
2022-08-12T02:25:46.395Z,20.87
2022-08-12T02:26:49.902Z,20.89
2022-08-12T02:27:55.306Z,20.81
2022-08-12T02:28:57.460Z,20.87
2022-08-12T02:29:59.244Z,20.89
2022-08-12T02:31:09.092Z,20.93
2022-08-12T02:32:11.550Z,20.82
2022-08-12T02:33:13.526Z,20.83
2022-08-12T02:34:16.806Z,20.84
2022-08-12T02:35:24.948Z,20.88
2022-08-12T02:36:28.113Z,20.89
2022-08-12T02:37:36.390Z,20.90
2022-08-12T02:38:41.995Z,20.80
2022-08-12T02:39:50.175Z,20.87
2022-08-12T02:40:54.835Z,20.86
2022-08-12T02:42:00.567Z,20.87
2022-08-12T02:43:14.707Z,20.88
2022-08-12T02:44:19.660Z,20.91
2022-08-12T02:45:46.428Z,20.90
2022-08-12T02:46:52.342Z,20.93
2022-08-12T02:47:58.720Z,20.94
2022-08-12T02:49:15.950Z,20.97
2022-08-12T02:50:20.595Z,20.99
2022-08-12T02:51:44.350Z,20.99
2022-08-12T02:52:47.626Z,21.02
2022-08-12T02:54:04.839Z,21.02
2022-08-12T02:55:34.178Z,21.03
2022-08-12T02:56:47.192Z,21.03
2022-08-12T02:57:53.321Z,21.04
2022-08-12T02:58:55.799Z,21.04
2022-08-12T02:59:58.034Z,21.00
2022-08-12T03:01:01.792Z,21.04
2022-08-12T03:02:04.453Z,21.10
2022-08-12T03:03:09.309Z,21.09
2022-08-12T03:04:20.993Z,21.04
2022-08-12T03:05:25.152Z,20.96
2022-08-12T03:06:32.264Z,21.05
2022-08-12T03:07:59.451Z,21.03
2022-08-12T03:09:03.973Z,21.03
2022-08-12T03:10:13.056Z,20.97
2022-08-12T03:11:27.071Z,21.06
2022-08-12T03:12:34.198Z,21.07
2022-08-12T03:13:40.195Z,21.05
2022-08-12T03:14:43.688Z,21.08
2022-08-12T03:15:45.905Z,21.04
2022-08-12T03:16:55.783Z,21.10
2022-08-12T03:18:26.516Z,21.09
2022-08-12T03:19:31.303Z,20.97
2022-08-12T03:20:38.185Z,21.03
2022-08-12T03:21:52.948Z,20.98
2022-08-12T03:23:11.766Z,20.89
2022-08-12T03:24:27.480Z,20.81
2022-08-12T03:25:34.650Z,20.84
2022-08-12T03:26:37.700Z,20.84
2022-08-12T03:27:49.722Z,20.77
2022-08-12T03:28:57.961Z,20.80
2022-08-12T03:29:59.759Z,20.62
2022-08-12T03:31:04.515Z,20.77
2022-08-12T03:32:06.458Z,20.77
2022-08-12T03:33:11.905Z,20.74
2022-08-12T03:34:23.671Z,20.69
2022-08-12T03:35:41.331Z,20.68
2022-08-12T03:36:47.567Z,20.68
2022-08-12T03:37:50.619Z,20.67
2022-08-12T03:39:12.310Z,20.70
2022-08-12T03:40:33.988Z,20.72
2022-08-12T03:41:41.638Z,20.73
2022-08-12T03:43:05.578Z,20.74
2022-08-12T03:44:35.836Z,20.78
2022-08-12T03:45:56.835Z,20.72
2022-08-12T03:47:55.524Z,20.81
2022-08-12T03:49:16.129Z,20.96
2022-08-12T03:50:37.986Z,21.02
2022-08-12T03:51:58.943Z,21.13
2022-08-12T03:53:20.420Z,21.21
2022-08-12T03:54:42.700Z,21.26
2022-08-12T03:56:03.087Z,21.28
2022-08-12T03:57:23.642Z,21.34
2022-08-12T03:58:44.645Z,21.41
2022-08-12T04:00:04.656Z,21.47
2022-08-12T04:01:07.356Z,21.55
2022-08-12T04:02:14.744Z,21.62
2022-08-12T04:03:35.967Z,21.71
2022-08-12T04:04:37.774Z,21.74
2022-08-12T04:05:55.310Z,21.86
2022-08-12T04:06:58.829Z,21.99
2022-08-12T04:08:00.629Z,22.03
2022-08-12T04:09:06.737Z,22.20
2022-08-12T04:10:17.847Z,22.34
2022-08-12T04:11:46.977Z,22.45
2022-08-12T04:13:17.126Z,22.60
2022-08-12T04:14:19.921Z,22.77
2022-08-12T04:15:26.009Z,22.90
2022-08-12T04:16:28.833Z,23.03
2022-08-12T04:17:32.033Z,23.16
2022-08-12T04:18:34.056Z,23.29
2022-08-12T04:19:37.465Z,23.43
2022-08-12T04:20:43.114Z,23.45
2022-08-12T04:22:03.035Z,23.70
2022-08-12T04:23:05.868Z,23.87
2022-08-12T04:24:10.095Z,24.03
2022-08-12T04:25:13.116Z,24.14
2022-08-12T04:26:16.230Z,24.28
2022-08-12T04:27:18.035Z,24.45
2022-08-12T04:28:27.905Z,24.60
2022-08-12T04:30:30.176Z,24.81
2022-08-12T04:30:52.205Z,24.99
2022-08-12T04:31:56.124Z,25.07
2022-08-12T04:32:58.349Z,25.16
2022-08-12T04:34:00.831Z,25.22
2022-08-12T04:35:04.003Z,25.21
2022-08-12T04:36:05.973Z,25.22
2022-08-12T04:37:07.707Z,25.21
2022-08-12T04:38:10.354Z,25.12
2022-08-12T04:39:13.204Z,25.18
2022-08-12T04:40:17.281Z,25.15
2022-08-12T04:41:31.348Z,25.15
2022-08-12T04:42:33.188Z,25.09
2022-08-12T04:44:00.627Z,24.98
2022-08-12T04:44:57.949Z,24.98
2022-08-12T04:45:59.702Z,25.00
2022-08-12T04:47:01.567Z,25.03
2022-08-12T04:48:03.654Z,25.04
2022-08-12T04:49:05.891Z,25.04
2022-08-12T04:50:35.297Z,24.96
2022-08-12T04:51:30.670Z,24.91
2022-08-12T04:52:34.966Z,24.71
2022-08-12T04:53:36.859Z,24.57
2022-08-12T04:54:38.691Z,24.61
2022-08-12T04:55:42.718Z,24.57
2022-08-12T04:56:44.890Z,24.58
2022-08-12T04:58:10.189Z,24.61
2022-08-12T04:59:15.795Z,24.58
2022-08-12T05:00:17.711Z,24.60
2022-08-12T05:01:20.355Z,24.52
2022-08-12T05:02:22.846Z,24.61
2022-08-12T05:03:28.010Z,24.56
2022-08-12T05:04:30.827Z,24.53
2022-08-12T05:05:36.353Z,24.60
2022-08-12T05:06:38.302Z,24.57
2022-08-12T05:07:45.770Z,24.61
2022-08-12T05:08:57.567Z,24.65
2022-08-12T05:10:02.469Z,24.68
2022-08-12T05:11:06.219Z,24.63
2022-08-12T05:12:08.397Z,24.75
2022-08-12T05:13:14.538Z,24.69
2022-08-12T05:14:16.743Z,24.68
2022-08-12T05:15:27.916Z,24.79
2022-08-12T05:16:33.070Z,24.78
2022-08-12T05:17:36.104Z,24.83
2022-08-12T05:18:40.225Z,24.80
2022-08-12T05:19:47.653Z,24.82
2022-08-12T05:20:51.087Z,24.90
2022-08-12T05:21:53.017Z,24.86
2022-08-12T05:23:19.485Z,24.89
2022-08-12T05:24:21.298Z,24.91
2022-08-12T05:25:22.996Z,24.83
2022-08-12T05:26:25.141Z,24.97
2022-08-12T05:27:26.837Z,24.98
2022-08-12T05:28:30.492Z,24.96
2022-08-12T05:30:06.205Z,24.87
2022-08-12T05:30:55.105Z,24.78
2022-08-12T05:31:58.154Z,24.83
2022-08-12T05:33:05.585Z,24.85
2022-08-12T05:34:07.400Z,25.02
2022-08-12T05:35:10.650Z,25.18
2022-08-12T05:36:14.960Z,25.41
2022-08-12T05:37:16.896Z,25.72
2022-08-12T05:38:38.497Z,26.00
2022-08-12T05:39:40.388Z,26.31
2022-08-12T05:40:42.397Z,26.57
2022-08-12T05:41:44.627Z,26.79
2022-08-12T05:42:47.137Z,26.98
2022-08-12T05:43:58.000Z,27.23
2022-08-12T05:45:00.364Z,27.47
2022-08-12T05:46:02.105Z,27.67
2022-08-12T05:47:04.591Z,27.92
2022-08-12T05:48:06.645Z,28.13
2022-08-12T05:49:09.272Z,28.35
2022-08-12T05:50:11.547Z,28.66
2022-08-12T05:51:16.979Z,28.78
2022-08-12T05:52:18.710Z,28.92
2022-08-12T05:53:21.017Z,29.09
2022-08-12T05:54:41.214Z,29.28
2022-08-12T05:55:44.429Z,29.46
2022-08-12T05:56:46.146Z,29.60
2022-08-12T05:57:53.712Z,29.81
2022-08-12T05:58:57.103Z,29.86
2022-08-12T05:59:58.834Z,30.09
2022-08-12T06:01:01.342Z,30.31
2022-08-12T06:02:23.062Z,30.35
2022-08-12T06:03:25.608Z,30.54
2022-08-12T06:04:27.364Z,30.74
2022-08-12T06:05:52.539Z,30.84
2022-08-12T06:06:57.680Z,31.02
2022-08-12T06:08:02.922Z,31.28
2022-08-12T06:09:05.337Z,31.13
2022-08-12T06:10:07.339Z,31.28
2022-08-12T06:11:09.065Z,31.57
2022-08-12T06:12:11.766Z,31.86
2022-08-12T06:13:28.286Z,32.07
2022-08-12T06:14:31.805Z,32.25
2022-08-12T06:15:38.288Z,32.46
2022-08-12T06:16:40.055Z,32.66
2022-08-12T06:17:41.906Z,32.80
2022-08-12T06:18:44.496Z,32.94
2022-08-12T06:20:26.367Z,33.05
2022-08-12T06:21:13.802Z,33.30
2022-08-12T06:22:15.538Z,33.45
2022-08-12T06:23:17.370Z,33.55
2022-08-12T06:24:20.297Z,33.47
2022-08-12T06:25:22.310Z,33.70
2022-08-12T06:26:24.197Z,33.84
2022-08-12T06:27:25.997Z,33.91
2022-08-12T06:28:30.630Z,33.99
2022-08-12T06:30:08.362Z,34.09
2022-08-12T06:31:24.184Z,34.14
2022-08-12T06:32:16.894Z,34.41
2022-08-12T06:33:21.893Z,34.63
2022-08-12T06:35:26.769Z,34.45
2022-08-12T06:35:58.734Z,34.40
2022-08-12T06:37:00.684Z,34.26
2022-08-12T06:38:03.838Z,34.35
2022-08-12T06:39:05.565Z,34.33
2022-08-12T06:40:41.223Z,34.56
2022-08-12T06:42:31.388Z,34.59
2022-08-12T06:43:23.727Z,34.86
2022-08-12T06:44:25.526Z,34.88
2022-08-12T06:45:27.285Z,35.03
2022-08-12T06:46:48.066Z,35.14
2022-08-12T06:47:49.748Z,35.14
2022-08-12T06:48:57.279Z,34.96
2022-08-12T06:49:59.543Z,35.25
2022-08-12T06:51:04.290Z,35.39
2022-08-12T06:52:08.028Z,35.53
2022-08-12T06:53:11.547Z,35.65
2022-08-12T06:54:13.334Z,35.63
2022-08-12T06:55:33.200Z,35.64
2022-08-12T06:58:09.860Z,35.67
2022-08-12T06:59:14.229Z,35.73
2022-08-12T07:00:19.896Z,36.03
2022-08-12T07:01:21.695Z,36.24
2022-08-12T07:02:23.637Z,36.32
2022-08-12T07:03:30.331Z,36.42
2022-08-12T07:04:39.193Z,36.55
2022-08-12T07:05:42.390Z,36.69
2022-08-12T07:06:44.977Z,36.71
2022-08-12T07:07:48.046Z,36.77
2022-08-12T07:08:49.903Z,36.81
2022-08-12T07:10:06.761Z,36.90
2022-08-12T07:11:13.445Z,36.73
2022-08-12T07:12:19.494Z,36.78
2022-08-12T07:13:22.186Z,36.85
2022-08-12T07:14:23.872Z,37.04
2022-08-12T07:15:26.294Z,37.16
2022-08-12T07:16:48.331Z,37.28
2022-08-12T07:18:00.647Z,37.38
2022-08-12T07:19:04.338Z,37.42
2022-08-12T07:20:20.086Z,37.52
2022-08-12T07:22:01.983Z,37.78
2022-08-12T07:22:56.419Z,37.96
2022-08-12T07:23:58.157Z,37.92
2022-08-12T07:25:18.387Z,38.32
2022-08-12T07:26:21.486Z,38.41
2022-08-12T07:27:27.434Z,38.60
2022-08-12T07:28:32.694Z,38.63
2022-08-12T07:30:00.051Z,38.65
2022-08-12T07:30:57.419Z,38.35
2022-08-12T07:31:59.840Z,38.12
2022-08-12T07:33:04.094Z,38.20
2022-08-12T07:34:06.586Z,38.35
2022-08-12T07:35:08.697Z,38.46
2022-08-12T07:36:14.646Z,38.54
2022-08-12T07:37:17.897Z,38.44
2022-08-12T07:38:29.029Z,38.34
2022-08-12T07:39:31.766Z,38.24
2022-08-12T07:40:33.622Z,38.02
2022-08-12T07:41:35.348Z,37.72
2022-08-12T07:42:37.531Z,37.30
2022-08-12T07:43:46.942Z,37.28
2022-08-12T07:44:51.656Z,37.46
2022-08-12T07:45:55.203Z,37.63
2022-08-12T07:46:56.907Z,37.87
2022-08-12T07:47:58.972Z,38.07
2022-08-12T07:49:04.549Z,38.07
2022-08-12T07:50:09.649Z,37.79
2022-08-12T07:51:12.510Z,37.67
2022-08-12T07:52:30.556Z,37.34
2022-08-12T07:53:33.334Z,37.22
2022-08-12T07:54:49.616Z,36.40
2022-08-12T07:55:51.340Z,36.07
2022-08-12T07:56:53.196Z,36.47
2022-08-12T07:57:59.413Z,37.02
2022-08-12T07:59:03.211Z,37.24
2022-08-12T08:00:06.369Z,37.34
2022-08-12T08:01:12.053Z,37.33
2022-08-12T08:02:13.933Z,37.43
2022-08-12T08:03:17.172Z,37.57
2022-08-12T08:04:37.319Z,37.74
2022-08-12T08:05:40.675Z,37.80
2022-08-12T08:06:42.992Z,37.67
2022-08-12T08:07:44.757Z,37.56
2022-08-12T08:08:46.466Z,37.39
2022-08-12T08:09:48.357Z,37.37
2022-08-12T08:10:52.871Z,37.41
2022-08-12T08:12:18.533Z,37.56
2022-08-12T08:13:20.680Z,37.73
2022-08-12T08:14:25.469Z,37.89
2022-08-12T08:16:00.642Z,38.02
2022-08-12T08:16:52.834Z,37.98
2022-08-12T08:18:10.462Z,38.13
2022-08-12T08:19:24.111Z,38.24
2022-08-12T08:20:31.157Z,38.24
2022-08-12T08:21:35.454Z,38.45
2022-08-12T08:22:42.620Z,38.57
2022-08-12T08:24:05.253Z,38.61
2022-08-12T08:25:34.252Z,38.47
2022-08-12T08:26:29.655Z,38.56
2022-08-12T08:27:47.180Z,38.46
2022-08-12T08:28:50.733Z,37.80
2022-08-12T08:29:52.502Z,37.83
2022-08-12T08:30:54.237Z,37.90
2022-08-12T08:32:00.250Z,38.04
2022-08-12T08:33:02.093Z,38.16
2022-08-12T08:34:33.469Z,38.15
2022-08-12T08:35:37.778Z,38.29
2022-08-12T08:36:49.019Z,38.46
2022-08-12T08:37:52.098Z,38.49
2022-08-12T08:38:58.143Z,38.83
2022-08-12T08:40:20.485Z,39.02
2022-08-12T08:42:16.295Z,39.02
2022-08-12T08:43:03.504Z,38.97
2022-08-12T08:44:05.944Z,38.95
2022-08-12T08:45:13.183Z,38.20
2022-08-12T08:46:14.923Z,38.16
2022-08-12T08:47:16.721Z,37.68
2022-08-12T08:48:18.661Z,37.41
2022-08-12T08:49:20.901Z,37.11
2022-08-12T08:50:22.953Z,36.09
2022-08-12T08:51:26.096Z,35.49
2022-08-12T08:52:46.392Z,35.17
2022-08-12T08:53:51.808Z,35.24
2022-08-12T08:54:55.509Z,35.18
2022-08-12T08:56:04.917Z,35.47
2022-08-12T08:57:11.091Z,35.92
2022-08-12T08:58:12.834Z,36.12
2022-08-12T08:59:14.672Z,35.87
2022-08-12T09:00:21.220Z,35.66
2022-08-12T09:01:23.079Z,36.03
2022-08-12T09:02:26.394Z,36.08
2022-08-12T09:05:08.638Z,35.99
2022-08-12T09:05:12.893Z,35.95
2022-08-12T09:06:17.122Z,36.02
2022-08-12T09:07:58.450Z,35.99
2022-08-12T09:08:46.308Z,35.56
2022-08-12T09:12:07.316Z,35.54
2022-08-12T09:13:19.319Z,35.06
2022-08-12T09:14:29.318Z,35.17
2022-08-12T09:15:35.427Z,35.35
2022-08-12T09:16:42.531Z,35.71
2022-08-12T09:17:57.092Z,36.21
2022-08-12T09:18:59.126Z,36.65
2022-08-12T09:20:02.336Z,36.87
2022-08-12T09:21:06.273Z,37.03
2022-08-12T09:22:08.753Z,36.97
2022-08-12T09:23:57.297Z,36.75
2022-08-12T09:24:36.299Z,36.23
2022-08-12T09:25:42.805Z,35.92
2022-08-12T09:26:48.553Z,35.84
2022-08-12T09:28:18.060Z,36.02
2022-08-12T09:30:09.908Z,36.16
2022-08-12T09:30:49.915Z,36.13
2022-08-12T09:32:07.127Z,36.29
2022-08-12T09:33:18.384Z,36.50
2022-08-12T09:34:31.543Z,36.59
2022-08-12T09:35:44.463Z,36.67
2022-08-12T09:37:00.530Z,36.10
2022-08-12T09:38:03.587Z,35.79
2022-08-12T09:40:08.099Z,36.21
2022-08-12T09:41:01.756Z,36.02
2022-08-12T09:42:40.495Z,36.49
2022-08-12T09:43:53.960Z,36.78
2022-08-12T09:45:24.714Z,36.46
2022-08-12T09:46:45.643Z,35.98
2022-08-12T09:47:59.263Z,35.91
2022-08-12T09:49:03.882Z,35.62
2022-08-12T09:50:06.454Z,35.46
2022-08-12T09:51:22.792Z,35.43
2022-08-12T09:52:24.903Z,35.40
2022-08-12T09:53:38.473Z,35.24
2022-08-12T09:54:42.961Z,35.65
2022-08-12T09:56:05.798Z,35.99
2022-08-12T09:58:44.466Z,36.19
2022-08-12T09:58:58.467Z,36.09
2022-08-12T10:00:16.371Z,35.87
2022-08-12T10:01:23.258Z,35.46
2022-08-12T10:02:43.866Z,35.13
2022-08-12T10:04:03.630Z,35.27
2022-08-12T10:05:13.075Z,34.95
2022-08-12T10:06:26.368Z,34.89
2022-08-12T10:07:37.645Z,34.42
2022-08-12T10:08:44.567Z,34.35
2022-08-12T10:09:58.455Z,34.58
2022-08-12T10:11:21.880Z,34.73
2022-08-12T10:12:43.122Z,34.79
2022-08-12T10:14:04.028Z,34.65
2022-08-12T10:15:07.591Z,34.84
2022-08-12T10:16:39.192Z,35.02
2022-08-12T10:17:56.565Z,34.96
2022-08-12T10:19:06.083Z,35.52
2022-08-12T10:20:19.000Z,35.93
2022-08-12T10:21:37.596Z,35.97
2022-08-12T10:22:41.385Z,35.84
2022-08-12T10:23:46.112Z,35.84
2022-08-12T10:25:17.549Z,35.69
2022-08-12T10:26:39.727Z,35.78
2022-08-12T10:28:05.012Z,35.37
2022-08-12T10:30:11.934Z,34.73
2022-08-12T10:30:58.994Z,35.26
2022-08-12T10:32:19.870Z,35.42
2022-08-12T10:33:30.813Z,35.81
2022-08-12T10:34:34.032Z,35.92
2022-08-12T10:35:38.174Z,36.07
2022-08-12T10:36:42.745Z,36.06
2022-08-12T10:38:34.338Z,36.30
2022-08-12T10:40:03.290Z,36.32
2022-08-12T10:40:55.964Z,36.49
2022-08-12T10:42:16.370Z,36.57
2022-08-12T10:43:54.448Z,36.46
2022-08-12T10:45:03.896Z,36.54
2022-08-12T10:46:13.148Z,36.49
2022-08-12T10:47:26.431Z,36.53
2022-08-12T10:48:38.625Z,36.64
2022-08-12T10:50:02.280Z,36.42
2022-08-12T10:52:03.552Z,36.41
2022-08-12T10:52:34.940Z,36.41
2022-08-12T10:53:49.527Z,36.57
2022-08-12T10:54:56.249Z,36.68
2022-08-12T10:55:58.899Z,36.78
2022-08-12T10:57:04.142Z,36.86
2022-08-12T10:58:15.746Z,36.84
2022-08-12T10:59:39.120Z,36.98
2022-08-12T11:01:48.921Z,37.03
2022-08-12T11:04:20.846Z,37.18
2022-08-12T11:04:25.901Z,37.12
2022-08-12T11:07:05.910Z,37.26
2022-08-12T11:07:09.091Z,37.35
2022-08-12T11:08:37.978Z,37.28
2022-08-12T11:09:07.293Z,37.39
2022-08-12T11:10:14.046Z,37.46
2022-08-12T11:12:07.644Z,37.40
2022-08-12T11:12:58.338Z,37.46
2022-08-12T11:14:01.818Z,37.58
2022-08-12T11:15:18.540Z,37.60
2022-08-12T11:16:23.370Z,37.64
2022-08-12T11:17:43.251Z,37.65
2022-08-12T11:18:47.412Z,37.35
2022-08-12T11:19:57.346Z,37.07
2022-08-12T11:20:59.791Z,37.18
2022-08-12T11:22:03.094Z,36.59
2022-08-12T11:23:25.759Z,36.17
2022-08-12T11:24:31.749Z,35.85
2022-08-12T11:25:55.515Z,35.89
2022-08-12T11:27:59.012Z,35.86
2022-08-12T11:29:06.021Z,36.00
2022-08-12T11:30:30.945Z,35.88
2022-08-12T11:31:55.826Z,35.68
2022-08-12T11:32:58.253Z,35.63
2022-08-12T11:34:04.820Z,35.70
2022-08-12T11:35:17.322Z,35.41
2022-08-12T11:36:22.176Z,35.28
2022-08-12T11:37:25.892Z,35.34
2022-08-12T11:38:28.596Z,35.31
2022-08-12T11:40:53.487Z,34.75
2022-08-12T11:41:55.289Z,35.00
2022-08-12T11:43:19.229Z,35.34
2022-08-12T11:44:35.511Z,35.62
2022-08-12T11:45:46.966Z,36.04
2022-08-12T11:46:51.356Z,36.31
2022-08-12T11:47:55.741Z,36.26
2022-08-12T11:48:57.435Z,36.21
2022-08-12T11:49:59.434Z,35.80
2022-08-12T11:51:01.151Z,35.67
2022-08-12T11:52:04.238Z,35.68
2022-08-12T11:53:59.123Z,35.45
2022-08-12T11:54:41.066Z,35.78
2022-08-12T11:55:52.907Z,35.80
2022-08-12T11:56:59.908Z,35.92
2022-08-12T11:58:36.564Z,35.94
2022-08-12T12:02:08.016Z,36.90
2022-08-12T12:03:09.768Z,37.10
2022-08-12T12:04:11.590Z,37.26
2022-08-12T12:05:15.708Z,37.46
2022-08-12T12:06:22.562Z,37.62
2022-08-12T12:07:34.001Z,37.82
2022-08-12T12:08:51.276Z,37.97
2022-08-12T12:09:55.719Z,37.92
2022-08-12T12:10:57.613Z,37.56
2022-08-12T12:12:01.068Z,37.56
2022-08-12T12:13:03.229Z,37.41
2022-08-12T12:14:13.260Z,37.71
2022-08-12T12:15:25.391Z,37.83
2022-08-12T12:16:40.046Z,37.80
2022-08-12T12:17:43.830Z,37.82
2022-08-12T12:18:46.485Z,37.85
2022-08-12T12:19:48.171Z,37.84
2022-08-12T12:20:50.078Z,37.87
2022-08-12T12:21:51.768Z,37.71
2022-08-12T12:22:53.467Z,37.73
2022-08-12T12:24:00.693Z,37.79
2022-08-12T12:25:13.172Z,37.70
2022-08-12T12:26:35.089Z,37.65
2022-08-12T12:28:03.776Z,37.62
2022-08-12T12:30:02.949Z,37.75
2022-08-12T12:30:29.906Z,37.82
2022-08-12T12:32:09.257Z,37.93
2022-08-12T12:32:55.281Z,37.93
2022-08-12T12:33:58.744Z,37.91
2022-08-12T12:35:14.183Z,38.07
2022-08-12T12:36:29.632Z,38.21
2022-08-12T12:38:03.590Z,38.26
2022-08-12T12:38:53.919Z,38.34
2022-08-12T12:39:58.228Z,38.39
2022-08-12T12:41:00.095Z,38.52
2022-08-12T12:42:45.366Z,38.67
2022-08-12T12:43:43.261Z,38.48
2022-08-12T12:44:50.913Z,38.14
2022-08-12T12:45:57.225Z,37.97
2022-08-12T12:46:58.958Z,38.07
2022-08-12T12:48:08.636Z,38.16
2022-08-12T12:49:10.917Z,38.21
2022-08-12T12:50:13.030Z,38.28
2022-08-12T12:51:56.393Z,38.06
2022-08-12T12:52:56.773Z,38.03
2022-08-12T12:54:06.813Z,38.12
2022-08-12T12:55:11.152Z,38.27
2022-08-12T12:56:34.705Z,38.32
2022-08-12T12:58:00.545Z,38.36
2022-08-12T12:59:06.268Z,38.54
2022-08-12T13:00:18.696Z,38.55
2022-08-12T13:01:28.066Z,38.25
2022-08-12T13:02:34.868Z,38.29
2022-08-12T13:03:49.384Z,38.41
2022-08-12T13:04:51.360Z,38.47
2022-08-12T13:05:55.496Z,38.57
2022-08-12T13:06:58.205Z,38.67
2022-08-12T13:08:01.862Z,38.47
2022-08-12T13:09:04.017Z,38.30
2022-08-12T13:10:06.898Z,38.20
2022-08-12T13:11:09.275Z,38.29
2022-08-12T13:12:12.706Z,38.44
2022-08-12T13:14:08.019Z,38.47
2022-08-12T13:14:40.039Z,38.53
2022-08-12T13:15:45.248Z,38.43
2022-08-12T13:16:47.749Z,38.49
2022-08-12T13:18:02.818Z,38.59
2022-08-12T13:19:07.694Z,38.57
2022-08-12T13:20:10.330Z,38.67
2022-08-12T13:21:15.799Z,38.73
2022-08-12T13:22:34.491Z,38.81
2022-08-12T13:23:37.801Z,38.77
2022-08-12T13:24:40.401Z,38.57
2022-08-12T13:25:42.411Z,38.49
2022-08-12T13:26:45.903Z,38.35
2022-08-12T13:27:48.723Z,38.39
2022-08-12T13:28:53.293Z,38.48
2022-08-12T13:30:00.909Z,38.43
2022-08-12T13:31:05.508Z,38.41
2022-08-12T13:32:19.602Z,38.52
2022-08-12T13:34:32.348Z,38.41
2022-08-12T13:34:53.584Z,38.04
2022-08-12T13:36:11.192Z,37.90
2022-08-12T13:37:17.836Z,37.91
2022-08-12T13:38:26.663Z,38.12
2022-08-12T13:39:35.889Z,38.33
2022-08-12T13:40:40.075Z,38.27
2022-08-12T13:41:41.798Z,38.23
2022-08-12T13:42:45.038Z,38.17
2022-08-12T13:43:46.798Z,38.03
2022-08-12T13:44:51.560Z,37.83
2022-08-12T13:45:55.533Z,37.62
2022-08-12T13:46:58.583Z,37.61
2022-08-12T13:48:03.385Z,37.46
2022-08-12T13:49:06.621Z,37.51
2022-08-12T13:50:09.264Z,37.46
2022-08-12T13:51:11.286Z,37.67
2022-08-12T13:52:13.833Z,37.83
2022-08-12T13:53:24.104Z,37.96
2022-08-12T13:54:28.169Z,38.04
2022-08-12T13:55:31.010Z,38.12
2022-08-12T13:56:35.158Z,38.01
2022-08-12T13:57:44.466Z,37.46
2022-08-12T13:58:52.554Z,37.46
2022-08-12T13:59:55.580Z,37.68
2022-08-12T14:01:08.990Z,37.75
2022-08-12T14:02:13.523Z,37.58
2022-08-12T14:03:16.445Z,37.22
2022-08-12T14:04:19.213Z,37.09
2022-08-12T14:05:31.384Z,36.83
2022-08-12T14:06:41.244Z,36.78
2022-08-12T14:08:01.756Z,36.55
2022-08-12T14:09:17.642Z,36.55
2022-08-12T14:10:38.209Z,36.49
2022-08-12T14:11:39.929Z,36.51
2022-08-12T14:12:54.756Z,36.46
2022-08-12T14:14:06.238Z,36.55
2022-08-12T14:15:15.763Z,36.39
2022-08-12T14:16:37.525Z,36.45
2022-08-12T14:17:40.948Z,36.37
2022-08-12T14:18:44.803Z,36.11
2022-08-12T14:20:07.419Z,35.84
2022-08-12T14:21:18.341Z,35.70
2022-08-12T14:22:26.178Z,35.78
2022-08-12T14:24:04.750Z,35.85
2022-08-12T14:24:52.758Z,35.93
2022-08-12T14:25:56.690Z,35.90
2022-08-12T14:27:02.082Z,36.03
2022-08-12T14:28:11.513Z,36.09
2022-08-12T14:29:21.697Z,36.13
2022-08-12T14:30:35.076Z,36.10
2022-08-12T14:31:37.656Z,36.13
2022-08-12T14:32:45.232Z,36.19
2022-08-12T14:33:49.177Z,35.96
2022-08-12T14:34:51.756Z,35.24
2022-08-12T14:35:54.004Z,35.17
2022-08-12T14:36:55.741Z,35.34
2022-08-12T14:37:59.203Z,35.38
2022-08-12T14:39:04.844Z,35.36
2022-08-12T14:40:07.575Z,35.30
2022-08-12T14:41:18.196Z,35.34
2022-08-12T14:42:19.868Z,35.38
2022-08-12T14:43:22.989Z,35.42
2022-08-12T14:44:57.987Z,35.58
2022-08-12T14:45:58.882Z,35.77
2022-08-12T14:47:00.944Z,35.84
2022-08-12T14:48:11.752Z,35.75
2022-08-12T14:50:01.193Z,35.83
2022-08-12T14:51:03.088Z,35.97
2022-08-12T14:52:55.605Z,35.89
2022-08-12T14:57:35.330Z,35.41
2022-08-12T14:59:20.564Z,35.47
2022-08-12T15:00:50.785Z,35.45
2022-08-12T15:01:54.866Z,35.46
2022-08-12T15:02:56.845Z,35.48
2022-08-12T15:04:00.711Z,35.51
2022-08-12T15:05:04.573Z,35.58
2022-08-12T15:06:44.717Z,35.64
2022-08-12T15:07:33.646Z,35.75
2022-08-12T15:08:52.150Z,35.79
2022-08-12T15:09:54.143Z,35.82
2022-08-12T15:10:57.878Z,35.85
2022-08-12T15:12:03.249Z,35.89
2022-08-12T15:13:07.693Z,35.89
2022-08-12T15:14:10.010Z,35.96
2022-08-12T15:15:15.496Z,35.89
2022-08-12T15:16:18.693Z,35.70
2022-08-12T15:17:37.402Z,35.57
2022-08-12T15:18:40.142Z,35.55
2022-08-12T15:20:31.456Z,35.39